sensor_id;sensor_type;location;lat;lon;timestamp;temperature;humidity
831;DHT22;397;50.564;7.272;2023-09-12T00:00:34;22.80;99.90
831;DHT22;397;50.564;7.272;2023-09-12T00:03:02;22.70;99.90
831;DHT22;397;50.564;7.272;2023-09-12T00:05:29;22.80;99.90
831;DHT22;397;50.564;7.272;2023-09-12T00:07:57;22.70;99.90
831;DHT22;397;50.564;7.272;2023-09-12T00:10:25;22.80;99.90
831;DHT22;397;50.564;7.272;2023-09-12T00:12:53;22.80;99.90
831;DHT22;397;50.564;7.272;2023-09-12T00:15:21;22.80;99.90
831;DHT22;397;50.564;7.272;2023-09-12T00:17:49;22.80;99.90
831;DHT22;397;50.564;7.272;2023-09-12T00:20:16;22.90;99.90
831;DHT22;397;50.564;7.272;2023-09-12T00:22:45;22.80;99.90
831;DHT22;397;50.564;7.272;2023-09-12T00:25:13;22.80;99.90
831;DHT22;397;50.564;7.272;2023-09-12T00:27:40;22.80;99.90
831;DHT22;397;50.564;7.272;2023-09-12T00:30:08;22.80;99.90
831;DHT22;397;50.564;7.272;2023-09-12T00:32:36;22.90;99.90
831;DHT22;397;50.564;7.272;2023-09-12T00:35:04;22.80;99.90
831;DHT22;397;50.564;7.272;2023-09-12T00:37:31;22.80;99.90
831;DHT22;397;50.564;7.272;2023-09-12T00:39:59;22.80;99.90
831;DHT22;397;50.564;7.272;2023-09-12T00:42:26;22.80;99.90
831;DHT22;397;50.564;7.272;2023-09-12T00:44:54;22.70;99.90
831;DHT22;397;50.564;7.272;2023-09-12T00:47:22;22.80;99.90
831;DHT22;397;50.564;7.272;2023-09-12T00:49:51;22.80;99.90
831;DHT22;397;50.564;7.272;2023-09-12T00:52:19;22.80;99.90
831;DHT22;397;50.564;7.272;2023-09-12T00:54:47;22.70;99.90
831;DHT22;397;50.564;7.272;2023-09-12T00:57:15;22.70;99.90
831;DHT22;397;50.564;7.272;2023-09-12T00:59:43;22.70;99.90
831;DHT22;397;50.564;7.272;2023-09-12T01:02:10;22.70;99.90
831;DHT22;397;50.564;7.272;2023-09-12T01:04:38;22.70;99.90
831;DHT22;397;50.564;7.272;2023-09-12T01:07:06;22.70;99.90
831;DHT22;397;50.564;7.272;2023-09-12T01:09:33;22.60;99.90
831;DHT22;397;50.564;7.272;2023-09-12T01:12:01;22.70;99.90
831;DHT22;397;50.564;7.272;2023-09-12T01:14:30;22.60;99.90
831;DHT22;397;50.564;7.272;2023-09-12T01:16:58;22.60;99.90
831;DHT22;397;50.564;7.272;2023-09-12T01:19:27;22.70;99.90
831;DHT22;397;50.564;7.272;2023-09-12T01:24:52;22.70;99.90
831;DHT22;397;50.564;7.272;2023-09-12T01:27:36;22.60;99.90
831;DHT22;397;50.564;7.272;2023-09-12T01:30:02;22.50;99.90
831;DHT22;397;50.564;7.272;2023-09-12T01:32:32;22.40;99.90
831;DHT22;397;50.564;7.272;2023-09-12T01:35:00;22.40;99.90
831;DHT22;397;50.564;7.272;2023-09-12T01:37:31;22.40;99.90
831;DHT22;397;50.564;7.272;2023-09-12T01:39:58;22.40;99.90
831;DHT22;397;50.564;7.272;2023-09-12T01:42:29;22.50;99.90
831;DHT22;397;50.564;7.272;2023-09-12T01:44:58;22.50;99.90
831;DHT22;397;50.564;7.272;2023-09-12T01:47:26;22.40;99.90
831;DHT22;397;50.564;7.272;2023-09-12T01:49:56;22.40;99.90
831;DHT22;397;50.564;7.272;2023-09-12T01:52:25;22.40;99.90
831;DHT22;397;50.564;7.272;2023-09-12T01:54:53;22.30;99.90
831;DHT22;397;50.564;7.272;2023-09-12T01:57:21;22.30;99.90
831;DHT22;397;50.564;7.272;2023-09-12T01:59:49;22.40;99.90
831;DHT22;397;50.564;7.272;2023-09-12T02:02:17;22.30;99.90
831;DHT22;397;50.564;7.272;2023-09-12T02:05:13;22.40;99.90
831;DHT22;397;50.564;7.272;2023-09-12T02:07:43;22.30;99.90
831;DHT22;397;50.564;7.272;2023-09-12T02:10:10;22.30;99.90
831;DHT22;397;50.564;7.272;2023-09-12T02:12:38;22.30;99.90
831;DHT22;397;50.564;7.272;2023-09-12T02:15:06;22.20;99.90
831;DHT22;397;50.564;7.272;2023-09-12T02:17:34;22.20;99.90
831;DHT22;397;50.564;7.272;2023-09-12T02:20:02;22.30;99.90
831;DHT22;397;50.564;7.272;2023-09-12T02:22:31;22.30;99.90
831;DHT22;397;50.564;7.272;2023-09-12T02:24:58;22.20;99.90
831;DHT22;397;50.564;7.272;2023-09-12T02:27:26;22.10;99.90
831;DHT22;397;50.564;7.272;2023-09-12T02:29:53;22.10;99.90
831;DHT22;397;50.564;7.272;2023-09-12T02:32:21;22.10;99.90
831;DHT22;397;50.564;7.272;2023-09-12T02:34:49;22.10;99.90
831;DHT22;397;50.564;7.272;2023-09-12T02:37:16;22.00;99.90
831;DHT22;397;50.564;7.272;2023-09-12T02:39:44;22.00;99.90
831;DHT22;397;50.564;7.272;2023-09-12T02:42:11;21.90;99.90
831;DHT22;397;50.564;7.272;2023-09-12T02:44:39;21.80;99.90
831;DHT22;397;50.564;7.272;2023-09-12T02:47:06;21.80;99.90
831;DHT22;397;50.564;7.272;2023-09-12T02:49:34;21.80;99.90
831;DHT22;397;50.564;7.272;2023-09-12T02:52:01;21.80;99.90
831;DHT22;397;50.564;7.272;2023-09-12T02:54:29;21.70;99.90
831;DHT22;397;50.564;7.272;2023-09-12T02:56:56;21.70;99.90
831;DHT22;397;50.564;7.272;2023-09-12T02:59:24;21.60;99.90
831;DHT22;397;50.564;7.272;2023-09-12T03:01:51;21.70;99.90
831;DHT22;397;50.564;7.272;2023-09-12T03:04:19;21.70;99.90
831;DHT22;397;50.564;7.272;2023-09-12T03:06:46;21.70;99.90
831;DHT22;397;50.564;7.272;2023-09-12T03:09:14;21.80;99.90
831;DHT22;397;50.564;7.272;2023-09-12T03:11:43;21.70;99.90
831;DHT22;397;50.564;7.272;2023-09-12T03:14:10;21.60;99.90
831;DHT22;397;50.564;7.272;2023-09-12T03:16:38;21.60;99.90
831;DHT22;397;50.564;7.272;2023-09-12T03:19:06;21.50;99.90
831;DHT22;397;50.564;7.272;2023-09-12T03:21:33;21.60;99.90
831;DHT22;397;50.564;7.272;2023-09-12T03:24:01;21.50;99.90
831;DHT22;397;50.564;7.272;2023-09-12T03:26:28;21.50;99.90
831;DHT22;397;50.564;7.272;2023-09-12T03:28:56;21.40;99.90
831;DHT22;397;50.564;7.272;2023-09-12T03:31:23;21.40;99.90
831;DHT22;397;50.564;7.272;2023-09-12T03:33:52;21.30;99.90
831;DHT22;397;50.564;7.272;2023-09-12T03:36:19;21.30;99.90
831;DHT22;397;50.564;7.272;2023-09-12T03:38:47;21.30;99.90
831;DHT22;397;50.564;7.272;2023-09-12T03:41:15;21.30;99.90
831;DHT22;397;50.564;7.272;2023-09-12T03:43:43;21.30;99.90
831;DHT22;397;50.564;7.272;2023-09-12T03:46:11;21.30;99.90
831;DHT22;397;50.564;7.272;2023-09-12T03:48:38;21.30;99.90
831;DHT22;397;50.564;7.272;2023-09-12T03:51:06;21.30;99.90
831;DHT22;397;50.564;7.272;2023-09-12T03:53:33;21.30;99.90
831;DHT22;397;50.564;7.272;2023-09-12T03:56:01;21.20;99.90
831;DHT22;397;50.564;7.272;2023-09-12T03:58:28;21.20;99.90
831;DHT22;397;50.564;7.272;2023-09-12T04:00:56;21.30;99.90
831;DHT22;397;50.564;7.272;2023-09-12T04:03:23;21.30;99.90
831;DHT22;397;50.564;7.272;2023-09-12T04:05:51;21.30;99.90
831;DHT22;397;50.564;7.272;2023-09-12T04:08:19;21.20;99.90
831;DHT22;397;50.564;7.272;2023-09-12T04:10:46;21.20;99.90
831;DHT22;397;50.564;7.272;2023-09-12T04:13:14;21.20;99.90
831;DHT22;397;50.564;7.272;2023-09-12T04:15:41;21.20;99.90
831;DHT22;397;50.564;7.272;2023-09-12T04:18:09;21.20;99.90
831;DHT22;397;50.564;7.272;2023-09-12T04:20:36;21.10;99.90
831;DHT22;397;50.564;7.272;2023-09-12T04:23:04;21.10;99.90
831;DHT22;397;50.564;7.272;2023-09-12T04:25:31;21.10;99.90
831;DHT22;397;50.564;7.272;2023-09-12T04:28:00;21.10;99.90
831;DHT22;397;50.564;7.272;2023-09-12T04:30:27;21.10;99.90
831;DHT22;397;50.564;7.272;2023-09-12T04:32:54;21.20;99.90
831;DHT22;397;50.564;7.272;2023-09-12T04:35:22;21.20;99.90
831;DHT22;397;50.564;7.272;2023-09-12T04:37:51;21.20;99.90
831;DHT22;397;50.564;7.272;2023-09-12T04:40:19;21.10;99.90
831;DHT22;397;50.564;7.272;2023-09-12T04:42:46;21.20;99.90
831;DHT22;397;50.564;7.272;2023-09-12T04:45:14;21.20;99.90
831;DHT22;397;50.564;7.272;2023-09-12T04:47:41;21.10;99.90
831;DHT22;397;50.564;7.272;2023-09-12T04:50:09;21.10;99.90
831;DHT22;397;50.564;7.272;2023-09-12T04:52:38;21.20;99.90
831;DHT22;397;50.564;7.272;2023-09-12T04:55:06;21.20;99.90
831;DHT22;397;50.564;7.272;2023-09-12T04:57:33;21.30;99.90
831;DHT22;397;50.564;7.272;2023-09-12T05:00:01;21.30;99.90
831;DHT22;397;50.564;7.272;2023-09-12T05:02:28;21.40;99.90
831;DHT22;397;50.564;7.272;2023-09-12T05:04:56;21.40;99.90
831;DHT22;397;50.564;7.272;2023-09-12T05:07:24;21.50;99.90
831;DHT22;397;50.564;7.272;2023-09-12T05:09:51;21.60;99.90
831;DHT22;397;50.564;7.272;2023-09-12T05:12:19;21.60;99.90
831;DHT22;397;50.564;7.272;2023-09-12T05:14:46;21.50;99.90
831;DHT22;397;50.564;7.272;2023-09-12T05:17:14;21.40;99.90
831;DHT22;397;50.564;7.272;2023-09-12T05:19:41;21.20;99.90
831;DHT22;397;50.564;7.272;2023-09-12T05:22:09;21.10;99.90
831;DHT22;397;50.564;7.272;2023-09-12T05:24:36;21.10;99.90
831;DHT22;397;50.564;7.272;2023-09-12T05:27:04;21.10;99.90
831;DHT22;397;50.564;7.272;2023-09-12T05:29:32;21.10;99.90
831;DHT22;397;50.564;7.272;2023-09-12T05:31:59;21.10;99.90
831;DHT22;397;50.564;7.272;2023-09-12T05:34:27;21.20;99.90
831;DHT22;397;50.564;7.272;2023-09-12T05:36:56;21.20;99.90
831;DHT22;397;50.564;7.272;2023-09-12T05:39:23;21.20;99.90
831;DHT22;397;50.564;7.272;2023-09-12T05:41:51;21.20;99.90
831;DHT22;397;50.564;7.272;2023-09-12T05:44:18;21.20;99.90
831;DHT22;397;50.564;7.272;2023-09-12T05:46:46;21.20;99.90
831;DHT22;397;50.564;7.272;2023-09-12T05:49:15;21.20;99.90
831;DHT22;397;50.564;7.272;2023-09-12T05:51:42;21.30;99.90
831;DHT22;397;50.564;7.272;2023-09-12T05:54:10;21.40;99.90
831;DHT22;397;50.564;7.272;2023-09-12T05:56:40;21.50;99.90
831;DHT22;397;50.564;7.272;2023-09-12T05:59:07;21.50;99.90
831;DHT22;397;50.564;7.272;2023-09-12T06:01:35;21.50;99.90
831;DHT22;397;50.564;7.272;2023-09-12T06:04:02;21.40;99.90
831;DHT22;397;50.564;7.272;2023-09-12T06:06:30;21.40;99.90
831;DHT22;397;50.564;7.272;2023-09-12T06:08:58;21.20;99.90
831;DHT22;397;50.564;7.272;2023-09-12T06:11:25;21.20;99.90
831;DHT22;397;50.564;7.272;2023-09-12T06:13:53;21.30;99.90
831;DHT22;397;50.564;7.272;2023-09-12T06:16:21;21.30;99.90
831;DHT22;397;50.564;7.272;2023-09-12T06:18:48;21.40;99.90
831;DHT22;397;50.564;7.272;2023-09-12T06:21:16;21.50;99.90
831;DHT22;397;50.564;7.272;2023-09-12T06:23:43;21.50;99.90
831;DHT22;397;50.564;7.272;2023-09-12T06:26:11;21.50;99.90
831;DHT22;397;50.564;7.272;2023-09-12T06:28:39;21.40;99.90
831;DHT22;397;50.564;7.272;2023-09-12T06:31:10;21.50;99.90
831;DHT22;397;50.564;7.272;2023-09-12T06:33:38;21.60;99.90
831;DHT22;397;50.564;7.272;2023-09-12T06:36:06;21.50;99.90
831;DHT22;397;50.564;7.272;2023-09-12T06:38:33;21.60;99.90
831;DHT22;397;50.564;7.272;2023-09-12T06:41:01;21.70;99.90
831;DHT22;397;50.564;7.272;2023-09-12T06:43:30;21.80;99.90
831;DHT22;397;50.564;7.272;2023-09-12T06:45:58;21.90;99.90
831;DHT22;397;50.564;7.272;2023-09-12T06:48:25;21.90;99.90
831;DHT22;397;50.564;7.272;2023-09-12T06:50:54;21.90;99.90
831;DHT22;397;50.564;7.272;2023-09-12T06:53:22;21.80;99.90
831;DHT22;397;50.564;7.272;2023-09-12T06:55:49;21.80;99.90
831;DHT22;397;50.564;7.272;2023-09-12T06:58:17;21.80;99.90
831;DHT22;397;50.564;7.272;2023-09-12T07:00:44;21.90;99.90
831;DHT22;397;50.564;7.272;2023-09-12T07:03:12;22.00;99.90
831;DHT22;397;50.564;7.272;2023-09-12T07:05:40;22.00;99.90
831;DHT22;397;50.564;7.272;2023-09-12T07:08:08;22.20;99.90
831;DHT22;397;50.564;7.272;2023-09-12T07:10:35;22.30;99.90
831;DHT22;397;50.564;7.272;2023-09-12T07:13:03;22.30;99.90
831;DHT22;397;50.564;7.272;2023-09-12T07:15:31;22.40;99.90
831;DHT22;397;50.564;7.272;2023-09-12T07:17:58;22.50;99.90
831;DHT22;397;50.564;7.272;2023-09-12T07:20:26;22.50;99.90
831;DHT22;397;50.564;7.272;2023-09-12T07:22:53;22.40;99.90
831;DHT22;397;50.564;7.272;2023-09-12T07:25:22;22.50;99.90
831;DHT22;397;50.564;7.272;2023-09-12T07:27:50;22.50;99.90
831;DHT22;397;50.564;7.272;2023-09-12T07:30:18;22.40;99.90
831;DHT22;397;50.564;7.272;2023-09-12T07:32:46;22.40;99.90
831;DHT22;397;50.564;7.272;2023-09-12T07:35:14;22.20;99.90
831;DHT22;397;50.564;7.272;2023-09-12T07:37:42;22.30;99.90
831;DHT22;397;50.564;7.272;2023-09-12T07:40:10;22.30;99.90
831;DHT22;397;50.564;7.272;2023-09-12T07:42:38;22.50;99.90
831;DHT22;397;50.564;7.272;2023-09-12T07:45:06;22.60;99.90
831;DHT22;397;50.564;7.272;2023-09-12T07:47:34;22.60;99.90
831;DHT22;397;50.564;7.272;2023-09-12T07:50:02;22.70;99.90
831;DHT22;397;50.564;7.272;2023-09-12T07:52:30;22.90;99.90
831;DHT22;397;50.564;7.272;2023-09-12T07:55:01;23.10;99.90
831;DHT22;397;50.564;7.272;2023-09-12T07:57:29;23.20;99.90
831;DHT22;397;50.564;7.272;2023-09-12T07:59:57;23.10;99.90
831;DHT22;397;50.564;7.272;2023-09-12T08:02:24;23.00;99.90
831;DHT22;397;50.564;7.272;2023-09-12T08:04:52;23.10;99.90
831;DHT22;397;50.564;7.272;2023-09-12T08:07:22;23.10;99.90
831;DHT22;397;50.564;7.272;2023-09-12T08:09:54;23.00;99.90
831;DHT22;397;50.564;7.272;2023-09-12T08:12:25;23.10;99.90
831;DHT22;397;50.564;7.272;2023-09-12T08:14:54;23.00;99.90
831;DHT22;397;50.564;7.272;2023-09-12T08:17:23;23.20;99.90
831;DHT22;397;50.564;7.272;2023-09-12T08:19:50;23.50;99.90
831;DHT22;397;50.564;7.272;2023-09-12T08:22:18;23.80;99.90
831;DHT22;397;50.564;7.272;2023-09-12T08:24:46;24.00;99.90
831;DHT22;397;50.564;7.272;2023-09-12T08:27:13;24.20;99.90
831;DHT22;397;50.564;7.272;2023-09-12T08:29:41;24.10;99.90
831;DHT22;397;50.564;7.272;2023-09-12T08:32:10;24.20;99.90
831;DHT22;397;50.564;7.272;2023-09-12T08:34:37;24.60;99.90
831;DHT22;397;50.564;7.272;2023-09-12T08:37:05;25.00;99.90
831;DHT22;397;50.564;7.272;2023-09-12T08:39:43;25.20;99.90
831;DHT22;397;50.564;7.272;2023-09-12T08:42:13;25.10;99.90
831;DHT22;397;50.564;7.272;2023-09-12T08:44:42;25.20;99.90
831;DHT22;397;50.564;7.272;2023-09-12T08:47:11;25.20;99.90
831;DHT22;397;50.564;7.272;2023-09-12T08:49:39;25.30;99.90
831;DHT22;397;50.564;7.272;2023-09-12T08:52:09;25.40;99.90
831;DHT22;397;50.564;7.272;2023-09-12T08:54:36;25.50;99.90
831;DHT22;397;50.564;7.272;2023-09-12T08:57:05;25.10;99.90
831;DHT22;397;50.564;7.272;2023-09-12T08:59:34;25.10;99.90
831;DHT22;397;50.564;7.272;2023-09-12T09:02:03;25.20;99.90
831;DHT22;397;50.564;7.272;2023-09-12T09:04:33;25.40;99.90
831;DHT22;397;50.564;7.272;2023-09-12T09:07:01;24.90;99.90
831;DHT22;397;50.564;7.272;2023-09-12T09:09:30;24.60;99.90
831;DHT22;397;50.564;7.272;2023-09-12T09:11:59;24.80;99.90
831;DHT22;397;50.564;7.272;2023-09-12T09:14:26;24.90;99.90
831;DHT22;397;50.564;7.272;2023-09-12T09:16:54;25.10;99.90
831;DHT22;397;50.564;7.272;2023-09-12T09:19:21;25.20;99.90
831;DHT22;397;50.564;7.272;2023-09-12T09:21:49;25.20;99.90
831;DHT22;397;50.564;7.272;2023-09-12T09:24:17;25.10;99.90
831;DHT22;397;50.564;7.272;2023-09-12T09:26:50;24.80;99.90
831;DHT22;397;50.564;7.272;2023-09-12T09:29:21;24.90;99.90
831;DHT22;397;50.564;7.272;2023-09-12T09:31:50;24.80;99.90
831;DHT22;397;50.564;7.272;2023-09-12T09:34:19;24.90;99.90
831;DHT22;397;50.564;7.272;2023-09-12T09:36:52;24.80;99.90
831;DHT22;397;50.564;7.272;2023-09-12T09:39:21;25.00;99.90
831;DHT22;397;50.564;7.272;2023-09-12T09:41:51;25.00;99.90
831;DHT22;397;50.564;7.272;2023-09-12T09:44:20;25.20;99.90
831;DHT22;397;50.564;7.272;2023-09-12T09:46:50;25.30;99.90
831;DHT22;397;50.564;7.272;2023-09-12T09:49:20;25.20;99.90
831;DHT22;397;50.564;7.272;2023-09-12T09:51:48;25.10;99.90
831;DHT22;397;50.564;7.272;2023-09-12T09:54:15;25.20;99.90
831;DHT22;397;50.564;7.272;2023-09-12T09:56:47;25.40;99.90
831;DHT22;397;50.564;7.272;2023-09-12T09:59:16;25.40;99.90
831;DHT22;397;50.564;7.272;2023-09-12T10:01:45;25.40;99.90
831;DHT22;397;50.564;7.272;2023-09-12T10:04:13;25.40;99.90
831;DHT22;397;50.564;7.272;2023-09-12T10:06:45;25.40;99.90
831;DHT22;397;50.564;7.272;2023-09-12T10:09:14;25.50;99.90
831;DHT22;397;50.564;7.272;2023-09-12T10:11:43;25.60;99.90
831;DHT22;397;50.564;7.272;2023-09-12T10:14:12;25.70;99.90
831;DHT22;397;50.564;7.272;2023-09-12T10:16:52;25.70;99.90
831;DHT22;397;50.564;7.272;2023-09-12T10:19:22;25.80;99.90
831;DHT22;397;50.564;7.272;2023-09-12T10:21:59;25.90;99.90
831;DHT22;397;50.564;7.272;2023-09-12T10:24:25;26.00;99.90
831;DHT22;397;50.564;7.272;2023-09-12T10:26:55;25.90;99.90
831;DHT22;397;50.564;7.272;2023-09-12T10:29:23;26.00;99.90
831;DHT22;397;50.564;7.272;2023-09-12T10:31:50;26.00;99.90
831;DHT22;397;50.564;7.272;2023-09-12T10:34:19;26.10;99.90
831;DHT22;397;50.564;7.272;2023-09-12T10:36:48;26.10;99.90
831;DHT22;397;50.564;7.272;2023-09-12T10:39:16;26.10;99.90
831;DHT22;397;50.564;7.272;2023-09-12T10:41:46;26.30;99.90
831;DHT22;397;50.564;7.272;2023-09-12T10:44:17;26.00;99.90
831;DHT22;397;50.564;7.272;2023-09-12T10:46:46;25.80;99.90
831;DHT22;397;50.564;7.272;2023-09-12T10:49:16;25.50;99.90
831;DHT22;397;50.564;7.272;2023-09-12T10:51:47;25.40;99.90
831;DHT22;397;50.564;7.272;2023-09-12T10:54:26;25.40;99.90
831;DHT22;397;50.564;7.272;2023-09-12T10:56:45;25.40;99.90
831;DHT22;397;50.564;7.272;2023-09-12T10:59:14;25.30;99.90
831;DHT22;397;50.564;7.272;2023-09-12T11:01:45;25.40;99.90
831;DHT22;397;50.564;7.272;2023-09-12T11:06:51;25.40;99.90
831;DHT22;397;50.564;7.272;2023-09-12T11:09:24;25.40;99.90
831;DHT22;397;50.564;7.272;2023-09-12T11:12:04;25.50;99.90
831;DHT22;397;50.564;7.272;2023-09-12T11:14:36;25.50;99.90
831;DHT22;397;50.564;7.272;2023-09-12T11:19:44;25.80;99.90
831;DHT22;397;50.564;7.272;2023-09-12T11:22:28;25.80;99.90
831;DHT22;397;50.564;7.272;2023-09-12T11:25:01;25.60;99.90
831;DHT22;397;50.564;7.272;2023-09-12T11:27:31;25.60;99.90
831;DHT22;397;50.564;7.272;2023-09-12T11:30:06;25.40;99.90
831;DHT22;397;50.564;7.272;2023-09-12T11:32:36;25.60;99.90
831;DHT22;397;50.564;7.272;2023-09-12T11:35:08;25.60;99.90
831;DHT22;397;50.564;7.272;2023-09-12T11:37:35;25.60;99.90
831;DHT22;397;50.564;7.272;2023-09-12T11:42:43;25.80;99.90
831;DHT22;397;50.564;7.272;2023-09-12T11:45:13;25.90;99.90
831;DHT22;397;50.564;7.272;2023-09-12T11:47:42;25.70;99.90
831;DHT22;397;50.564;7.272;2023-09-12T11:50:30;25.70;99.90
831;DHT22;397;50.564;7.272;2023-09-12T11:53:05;25.70;99.90
831;DHT22;397;50.564;7.272;2023-09-12T11:55:54;26.00;99.90
831;DHT22;397;50.564;7.272;2023-09-12T11:58:07;26.00;99.90
831;DHT22;397;50.564;7.272;2023-09-12T12:00:34;26.00;99.90
831;DHT22;397;50.564;7.272;2023-09-12T12:03:02;26.10;99.90
831;DHT22;397;50.564;7.272;2023-09-12T12:05:30;26.10;99.90
831;DHT22;397;50.564;7.272;2023-09-12T12:07:58;26.10;99.90
831;DHT22;397;50.564;7.272;2023-09-12T12:10:26;26.10;99.90
831;DHT22;397;50.564;7.272;2023-09-12T12:12:54;26.10;99.90
831;DHT22;397;50.564;7.272;2023-09-12T12:15:21;26.10;99.90
831;DHT22;397;50.564;7.272;2023-09-12T12:17:49;26.20;99.90
831;DHT22;397;50.564;7.272;2023-09-12T12:20:18;26.20;99.90
831;DHT22;397;50.564;7.272;2023-09-12T12:22:45;26.30;99.90
831;DHT22;397;50.564;7.272;2023-09-12T12:25:14;26.30;99.90
831;DHT22;397;50.564;7.272;2023-09-12T12:27:42;26.50;99.90
831;DHT22;397;50.564;7.272;2023-09-12T12:30:11;26.60;99.90
831;DHT22;397;50.564;7.272;2023-09-12T12:32:46;26.60;99.90
831;DHT22;397;50.564;7.272;2023-09-12T12:35:23;26.50;99.90
831;DHT22;397;50.564;7.272;2023-09-12T12:37:53;26.50;99.90
831;DHT22;397;50.564;7.272;2023-09-12T12:40:20;26.60;99.90
831;DHT22;397;50.564;7.272;2023-09-12T12:42:48;26.60;99.90
831;DHT22;397;50.564;7.272;2023-09-12T12:45:18;26.60;99.90
831;DHT22;397;50.564;7.272;2023-09-12T12:47:46;26.70;99.90
831;DHT22;397;50.564;7.272;2023-09-12T12:50:14;26.70;99.90
831;DHT22;397;50.564;7.272;2023-09-12T12:52:46;26.60;99.90
831;DHT22;397;50.564;7.272;2023-09-12T12:55:15;26.40;99.90
831;DHT22;397;50.564;7.272;2023-09-12T12:57:45;26.50;99.90
831;DHT22;397;50.564;7.272;2023-09-12T13:00:16;26.40;99.90
831;DHT22;397;50.564;7.272;2023-09-12T13:02:44;26.30;99.90
831;DHT22;397;50.564;7.272;2023-09-12T13:05:26;26.30;99.90
831;DHT22;397;50.564;7.272;2023-09-12T13:07:55;26.40;99.90
831;DHT22;397;50.564;7.272;2023-09-12T13:10:23;26.40;99.90
831;DHT22;397;50.564;7.272;2023-09-12T13:12:51;26.40;99.90
831;DHT22;397;50.564;7.272;2023-09-12T13:15:18;26.30;99.90
831;DHT22;397;50.564;7.272;2023-09-12T13:17:46;26.30;99.90
831;DHT22;397;50.564;7.272;2023-09-12T13:20:13;26.30;99.90
831;DHT22;397;50.564;7.272;2023-09-12T13:22:41;26.30;99.90
831;DHT22;397;50.564;7.272;2023-09-12T13:25:10;26.50;99.90
831;DHT22;397;50.564;7.272;2023-09-12T13:27:37;26.60;99.90
831;DHT22;397;50.564;7.272;2023-09-12T13:30:05;26.60;99.90
831;DHT22;397;50.564;7.272;2023-09-12T13:32:33;26.70;99.90
831;DHT22;397;50.564;7.272;2023-09-12T13:35:01;26.80;99.90
831;DHT22;397;50.564;7.272;2023-09-12T13:37:29;26.90;99.90
831;DHT22;397;50.564;7.272;2023-09-12T13:39:57;27.00;99.90
831;DHT22;397;50.564;7.272;2023-09-12T13:42:25;27.00;99.90
831;DHT22;397;50.564;7.272;2023-09-12T13:44:54;27.00;99.90
831;DHT22;397;50.564;7.272;2023-09-12T13:47:22;27.10;99.90
831;DHT22;397;50.564;7.272;2023-09-12T13:49:50;27.00;99.90
831;DHT22;397;50.564;7.272;2023-09-12T13:52:22;26.90;99.90
831;DHT22;397;50.564;7.272;2023-09-12T13:54:49;26.80;99.90
831;DHT22;397;50.564;7.272;2023-09-12T13:57:17;26.60;99.90
831;DHT22;397;50.564;7.272;2023-09-12T13:59:44;26.60;99.90
831;DHT22;397;50.564;7.272;2023-09-12T14:02:12;26.80;99.90
831;DHT22;397;50.564;7.272;2023-09-12T14:04:39;26.80;99.90
831;DHT22;397;50.564;7.272;2023-09-12T14:07:07;26.80;99.90
831;DHT22;397;50.564;7.272;2023-09-12T14:09:34;26.70;99.90
831;DHT22;397;50.564;7.272;2023-09-12T14:12:02;26.70;99.90
831;DHT22;397;50.564;7.272;2023-09-12T14:14:29;26.80;99.90
831;DHT22;397;50.564;7.272;2023-09-12T14:16:57;26.80;99.90
831;DHT22;397;50.564;7.272;2023-09-12T14:19:24;26.80;99.90
831;DHT22;397;50.564;7.272;2023-09-12T14:21:52;26.90;99.90
831;DHT22;397;50.564;7.272;2023-09-12T14:24:19;26.90;99.90
831;DHT22;397;50.564;7.272;2023-09-12T14:26:47;26.90;99.90
831;DHT22;397;50.564;7.272;2023-09-12T14:29:15;26.90;99.90
831;DHT22;397;50.564;7.272;2023-09-12T14:31:43;27.10;99.90
831;DHT22;397;50.564;7.272;2023-09-12T14:34:13;27.20;99.90
831;DHT22;397;50.564;7.272;2023-09-12T14:36:40;27.30;99.90
831;DHT22;397;50.564;7.272;2023-09-12T14:39:08;27.20;99.90
831;DHT22;397;50.564;7.272;2023-09-12T14:41:35;27.20;99.90
831;DHT22;397;50.564;7.272;2023-09-12T14:44:03;27.10;99.90
831;DHT22;397;50.564;7.272;2023-09-12T14:46:31;27.10;99.90
831;DHT22;397;50.564;7.272;2023-09-12T14:48:59;27.00;99.90
831;DHT22;397;50.564;7.272;2023-09-12T14:51:26;27.10;99.90
831;DHT22;397;50.564;7.272;2023-09-12T14:53:54;27.10;99.90
831;DHT22;397;50.564;7.272;2023-09-12T14:56:21;27.00;99.90
831;DHT22;397;50.564;7.272;2023-09-12T14:58:50;27.00;99.90
831;DHT22;397;50.564;7.272;2023-09-12T15:01:17;27.00;99.90
831;DHT22;397;50.564;7.272;2023-09-12T15:03:45;27.00;99.90
831;DHT22;397;50.564;7.272;2023-09-12T15:06:12;27.00;99.90
831;DHT22;397;50.564;7.272;2023-09-12T15:08:40;26.90;99.90
831;DHT22;397;50.564;7.272;2023-09-12T15:11:07;26.90;99.90
831;DHT22;397;50.564;7.272;2023-09-12T15:13:35;26.90;99.90
831;DHT22;397;50.564;7.272;2023-09-12T15:16:03;26.80;99.90
831;DHT22;397;50.564;7.272;2023-09-12T15:18:31;26.80;99.90
831;DHT22;397;50.564;7.272;2023-09-12T15:20:59;26.70;99.90
831;DHT22;397;50.564;7.272;2023-09-12T15:23:26;26.70;99.90
831;DHT22;397;50.564;7.272;2023-09-12T15:25:55;26.60;99.90
831;DHT22;397;50.564;7.272;2023-09-12T15:28:22;26.50;99.90
831;DHT22;397;50.564;7.272;2023-09-12T15:30:50;26.40;99.90
831;DHT22;397;50.564;7.272;2023-09-12T15:33:19;26.40;99.90
831;DHT22;397;50.564;7.272;2023-09-12T15:35:48;26.30;99.90
831;DHT22;397;50.564;7.272;2023-09-12T15:38:16;26.30;99.90
831;DHT22;397;50.564;7.272;2023-09-12T15:40:44;26.20;99.90
831;DHT22;397;50.564;7.272;2023-09-12T15:43:11;26.20;99.90
831;DHT22;397;50.564;7.272;2023-09-12T15:45:39;26.20;99.90
831;DHT22;397;50.564;7.272;2023-09-12T15:48:06;26.10;99.90
831;DHT22;397;50.564;7.272;2023-09-12T15:50:34;26.10;99.90
831;DHT22;397;50.564;7.272;2023-09-12T15:53:01;26.10;99.90
831;DHT22;397;50.564;7.272;2023-09-12T15:55:29;26.10;99.90
831;DHT22;397;50.564;7.272;2023-09-12T15:57:57;26.00;99.90
831;DHT22;397;50.564;7.272;2023-09-12T16:00:24;26.00;99.90
831;DHT22;397;50.564;7.272;2023-09-12T16:02:52;25.90;99.90
831;DHT22;397;50.564;7.272;2023-09-12T16:05:20;25.90;99.90
831;DHT22;397;50.564;7.272;2023-09-12T16:07:48;25.90;99.90
831;DHT22;397;50.564;7.272;2023-09-12T16:10:15;25.90;99.90
831;DHT22;397;50.564;7.272;2023-09-12T16:12:43;25.90;99.90
831;DHT22;397;50.564;7.272;2023-09-12T16:15:10;25.80;99.90
831;DHT22;397;50.564;7.272;2023-09-12T16:17:38;25.80;99.90
831;DHT22;397;50.564;7.272;2023-09-12T16:20:08;25.70;99.90
831;DHT22;397;50.564;7.272;2023-09-12T16:22:36;25.70;99.90
831;DHT22;397;50.564;7.272;2023-09-12T16:25:04;25.70;99.90
831;DHT22;397;50.564;7.272;2023-09-12T16:27:31;25.70;99.90
831;DHT22;397;50.564;7.272;2023-09-12T16:29:59;25.70;99.90
831;DHT22;397;50.564;7.272;2023-09-12T16:32:28;25.60;99.90
831;DHT22;397;50.564;7.272;2023-09-12T16:34:56;25.60;99.90
831;DHT22;397;50.564;7.272;2023-09-12T16:37:23;25.60;99.90
831;DHT22;397;50.564;7.272;2023-09-12T16:39:51;25.60;99.90
831;DHT22;397;50.564;7.272;2023-09-12T16:42:19;25.50;99.90
831;DHT22;397;50.564;7.272;2023-09-12T16:44:46;25.50;99.90
831;DHT22;397;50.564;7.272;2023-09-12T16:47:14;25.50;99.90
831;DHT22;397;50.564;7.272;2023-09-12T16:49:41;25.40;99.90
831;DHT22;397;50.564;7.272;2023-09-12T16:52:09;25.40;99.90